sensor_id;sensor_type;location;lat;lon;timestamp;temperature;humidity
13052;DHT22;6592;47.484;9.726;2024-01-30T00:01:08;1.90;99.90
13052;DHT22;6592;47.484;9.726;2024-01-30T00:03:36;1.90;99.90
13052;DHT22;6592;47.484;9.726;2024-01-30T00:06:04;2.00;99.90
13052;DHT22;6592;47.484;9.726;2024-01-30T00:08:34;2.00;99.90
13052;DHT22;6592;47.484;9.726;2024-01-30T00:11:03;2.00;99.90
13052;DHT22;6592;47.484;9.726;2024-01-30T00:13:31;2.00;99.90
13052;DHT22;6592;47.484;9.726;2024-01-30T00:15:59;2.00;99.90
13052;DHT22;6592;47.484;9.726;2024-01-30T00:18:27;2.00;99.90
13052;DHT22;6592;47.484;9.726;2024-01-30T00:20:56;1.90;99.90
13052;DHT22;6592;47.484;9.726;2024-01-30T00:23:24;1.80;99.90
13052;DHT22;6592;47.484;9.726;2024-01-30T00:25:54;1.90;99.90
13052;DHT22;6592;47.484;9.726;2024-01-30T00:28:22;1.90;99.90
13052;DHT22;6592;47.484;9.726;2024-01-30T00:30:50;1.90;99.90
13052;DHT22;6592;47.484;9.726;2024-01-30T00:33:18;1.90;99.90
13052;DHT22;6592;47.484;9.726;2024-01-30T00:35:47;1.90;99.90
13052;DHT22;6592;47.484;9.726;2024-01-30T00:38:15;1.80;99.90
13052;DHT22;6592;47.484;9.726;2024-01-30T00:40:43;1.80;99.90
13052;DHT22;6592;47.484;9.726;2024-01-30T00:43:13;1.90;99.90
13052;DHT22;6592;47.484;9.726;2024-01-30T00:45:43;1.90;99.90
13052;DHT22;6592;47.484;9.726;2024-01-30T00:48:11;1.90;99.90
13052;DHT22;6592;47.484;9.726;2024-01-30T00:50:39;2.00;99.90
13052;DHT22;6592;47.484;9.726;2024-01-30T00:53:07;2.00;99.90
13052;DHT22;6592;47.484;9.726;2024-01-30T00:55:36;2.00;99.90
13052;DHT22;6592;47.484;9.726;2024-01-30T00:58:04;2.10;99.90
13052;DHT22;6592;47.484;9.726;2024-01-30T01:00:34;2.10;99.90
13052;DHT22;6592;47.484;9.726;2024-01-30T01:03:03;2.00;99.90
13052;DHT22;6592;47.484;9.726;2024-01-30T01:05:31;2.10;99.90
13052;DHT22;6592;47.484;9.726;2024-01-30T01:08:00;2.10;99.90
13052;DHT22;6592;47.484;9.726;2024-01-30T01:10:28;2.10;99.90
13052;DHT22;6592;47.484;9.726;2024-01-30T01:12:56;2.10;99.90
13052;DHT22;6592;47.484;9.726;2024-01-30T01:15:24;2.10;99.90
13052;DHT22;6592;47.484;9.726;2024-01-30T01:17:57;2.10;99.90
13052;DHT22;6592;47.484;9.726;2024-01-30T01:20:25;2.10;99.90
13052;DHT22;6592;47.484;9.726;2024-01-30T01:22:53;2.20;99.90
13052;DHT22;6592;47.484;9.726;2024-01-30T01:25:22;2.00;99.90
13052;DHT22;6592;47.484;9.726;2024-01-30T01:27:50;2.00;99.90
13052;DHT22;6592;47.484;9.726;2024-01-30T01:30:19;2.10;99.90
13052;DHT22;6592;47.484;9.726;2024-01-30T01:32:49;2.10;99.90
13052;DHT22;6592;47.484;9.726;2024-01-30T01:35:24;2.20;99.90
13052;DHT22;6592;47.484;9.726;2024-01-30T01:37:52;2.20;99.90
13052;DHT22;6592;47.484;9.726;2024-01-30T01:40:23;2.10;99.90
13052;DHT22;6592;47.484;9.726;2024-01-30T01:42:52;2.10;99.90
13052;DHT22;6592;47.484;9.726;2024-01-30T01:45:21;2.10;99.90
13052;DHT22;6592;47.484;9.726;2024-01-30T01:47:51;2.10;99.90
13052;DHT22;6592;47.484;9.726;2024-01-30T01:50:20;2.10;99.90
13052;DHT22;6592;47.484;9.726;2024-01-30T01:52:52;2.10;99.90
13052;DHT22;6592;47.484;9.726;2024-01-30T01:55:21;2.00;99.90
13052;DHT22;6592;47.484;9.726;2024-01-30T01:57:53;2.00;99.90
13052;DHT22;6592;47.484;9.726;2024-01-30T02:00:21;2.00;99.90
13052;DHT22;6592;47.484;9.726;2024-01-30T02:02:50;2.00;99.90
13052;DHT22;6592;47.484;9.726;2024-01-30T02:05:21;2.00;99.90
13052;DHT22;6592;47.484;9.726;2024-01-30T02:07:51;2.00;99.90
13052;DHT22;6592;47.484;9.726;2024-01-30T02:10:20;1.90;99.90
13052;DHT22;6592;47.484;9.726;2024-01-30T02:12:49;1.90;99.90
13052;DHT22;6592;47.484;9.726;2024-01-30T02:15:17;1.80;99.90
13052;DHT22;6592;47.484;9.726;2024-01-30T02:17:46;1.80;99.90
13052;DHT22;6592;47.484;9.726;2024-01-30T02:20:14;1.80;99.90
13052;DHT22;6592;47.484;9.726;2024-01-30T02:22:45;1.70;99.90
13052;DHT22;6592;47.484;9.726;2024-01-30T02:25:13;1.70;99.90
13052;DHT22;6592;47.484;9.726;2024-01-30T02:27:43;1.70;99.90
13052;DHT22;6592;47.484;9.726;2024-01-30T02:30:12;1.80;99.90
13052;DHT22;6592;47.484;9.726;2024-01-30T02:32:40;1.80;99.90
13052;DHT22;6592;47.484;9.726;2024-01-30T02:35:08;1.80;99.90
13052;DHT22;6592;47.484;9.726;2024-01-30T02:37:37;1.80;99.90
13052;DHT22;6592;47.484;9.726;2024-01-30T02:40:07;1.70;99.90
13052;DHT22;6592;47.484;9.726;2024-01-30T02:42:36;1.60;99.90
13052;DHT22;6592;47.484;9.726;2024-01-30T02:45:05;1.60;99.90
13052;DHT22;6592;47.484;9.726;2024-01-30T02:47:33;1.60;99.90
13052;DHT22;6592;47.484;9.726;2024-01-30T02:50:02;1.60;99.90
13052;DHT22;6592;47.484;9.726;2024-01-30T02:52:30;1.60;99.90
13052;DHT22;6592;47.484;9.726;2024-01-30T02:54:58;1.60;99.90
13052;DHT22;6592;47.484;9.726;2024-01-30T02:57:28;1.60;99.90
13052;DHT22;6592;47.484;9.726;2024-01-30T02:59:57;1.60;99.90
13052;DHT22;6592;47.484;9.726;2024-01-30T03:02:25;1.60;99.90
13052;DHT22;6592;47.484;9.726;2024-01-30T03:04:53;1.60;99.90
13052;DHT22;6592;47.484;9.726;2024-01-30T03:07:22;1.60;99.90
13052;DHT22;6592;47.484;9.726;2024-01-30T03:09:50;1.60;99.90
13052;DHT22;6592;47.484;9.726;2024-01-30T03:12:18;1.50;99.90
13052;DHT22;6592;47.484;9.726;2024-01-30T03:14:48;1.50;99.90
13052;DHT22;6592;47.484;9.726;2024-01-30T03:17:17;1.50;99.90
13052;DHT22;6592;47.484;9.726;2024-01-30T03:19:45;1.40;99.90
13052;DHT22;6592;47.484;9.726;2024-01-30T03:22:13;1.40;99.90
13052;DHT22;6592;47.484;9.726;2024-01-30T03:24:41;1.50;99.90
13052;DHT22;6592;47.484;9.726;2024-01-30T03:27:10;1.40;99.90
13052;DHT22;6592;47.484;9.726;2024-01-30T03:29:38;1.40;99.90
13052;DHT22;6592;47.484;9.726;2024-01-30T03:32:08;1.30;99.90
13052;DHT22;6592;47.484;9.726;2024-01-30T03:34:36;1.40;99.90
13052;DHT22;6592;47.484;9.726;2024-01-30T03:37:05;1.20;99.90
13052;DHT22;6592;47.484;9.726;2024-01-30T03:39:33;1.20;99.90
13052;DHT22;6592;47.484;9.726;2024-01-30T03:42:01;1.10;99.90
13052;DHT22;6592;47.484;9.726;2024-01-30T03:44:29;0.90;99.90
13052;DHT22;6592;47.484;9.726;2024-01-30T03:46:57;0.90;99.90
13052;DHT22;6592;47.484;9.726;2024-01-30T03:49:27;0.80;99.90
13052;DHT22;6592;47.484;9.726;2024-01-30T03:51:55;0.90;99.90
13052;DHT22;6592;47.484;9.726;2024-01-30T03:54:24;0.60;99.90
13052;DHT22;6592;47.484;9.726;2024-01-30T03:56:52;0.50;99.90
13052;DHT22;6592;47.484;9.726;2024-01-30T03:59:20;0.60;99.90
13052;DHT22;6592;47.484;9.726;2024-01-30T04:01:51;0.50;99.90
13052;DHT22;6592;47.484;9.726;2024-01-30T04:04:19;0.50;99.90
13052;DHT22;6592;47.484;9.726;2024-01-30T04:06:49;0.40;99.90
13052;DHT22;6592;47.484;9.726;2024-01-30T04:09:18;0.30;99.90
13052;DHT22;6592;47.484;9.726;2024-01-30T04:11:46;0.10;99.90
13052;DHT22;6592;47.484;9.726;2024-01-30T04:14:14;0.00;99.90
13052;DHT22;6592;47.484;9.726;2024-01-30T04:16:43;0.00;99.90
13052;DHT22;6592;47.484;9.726;2024-01-30T04:19:11;-0.10;99.90
13052;DHT22;6592;47.484;9.726;2024-01-30T04:21:39;-0.20;99.90
13052;DHT22;6592;47.484;9.726;2024-01-30T04:24:09;-0.20;99.90
13052;DHT22;6592;47.484;9.726;2024-01-30T04:26:37;-0.30;99.90
13052;DHT22;6592;47.484;9.726;2024-01-30T04:29:05;-0.30;99.90
13052;DHT22;6592;47.484;9.726;2024-01-30T04:31:36;-0.30;99.90
13052;DHT22;6592;47.484;9.726;2024-01-30T04:34:04;-0.30;99.90
13052;DHT22;6592;47.484;9.726;2024-01-30T04:36:33;-0.30;99.90
13052;DHT22;6592;47.484;9.726;2024-01-30T04:39:01;-0.40;99.90
13052;DHT22;6592;47.484;9.726;2024-01-30T04:41:32;-0.40;99.90
13052;DHT22;6592;47.484;9.726;2024-01-30T04:44:00;-0.50;99.90
13052;DHT22;6592;47.484;9.726;2024-01-30T04:46:29;-0.50;99.90
13052;DHT22;6592;47.484;9.726;2024-01-30T04:48:57;-0.40;99.90
13052;DHT22;6592;47.484;9.726;2024-01-30T04:51:25;-0.50;99.90
13052;DHT22;6592;47.484;9.726;2024-01-30T04:53:53;-0.60;99.90
13052;DHT22;6592;47.484;9.726;2024-01-30T04:56:22;-0.50;99.90
13052;DHT22;6592;47.484;9.726;2024-01-30T04:58:51;-0.60;99.90
13052;DHT22;6592;47.484;9.726;2024-01-30T05:01:19;-0.50;99.90
13052;DHT22;6592;47.484;9.726;2024-01-30T05:03:48;-0.50;99.90
13052;DHT22;6592;47.484;9.726;2024-01-30T05:06:24;-0.50;99.90
13052;DHT22;6592;47.484;9.726;2024-01-30T05:08:53;-0.50;99.90
13052;DHT22;6592;47.484;9.726;2024-01-30T05:11:21;-0.50;99.90
13052;DHT22;6592;47.484;9.726;2024-01-30T05:13:51;-0.50;99.90
13052;DHT22;6592;47.484;9.726;2024-01-30T05:16:19;-0.40;99.90
13052;DHT22;6592;47.484;9.726;2024-01-30T05:18:47;-0.40;99.90
13052;DHT22;6592;47.484;9.726;2024-01-30T05:21:15;-0.40;99.90
13052;DHT22;6592;47.484;9.726;2024-01-30T05:23:44;-0.40;99.90
13052;DHT22;6592;47.484;9.726;2024-01-30T05:26:12;-0.50;99.90
13052;DHT22;6592;47.484;9.726;2024-01-30T05:28:40;-0.40;99.90
13052;DHT22;6592;47.484;9.726;2024-01-30T05:31:09;-0.40;99.90
13052;DHT22;6592;47.484;9.726;2024-01-30T05:33:37;-0.40;99.90
13052;DHT22;6592;47.484;9.726;2024-01-30T05:36:06;-0.30;99.90
13052;DHT22;6592;47.484;9.726;2024-01-30T05:38:42;-0.30;99.90
13052;DHT22;6592;47.484;9.726;2024-01-30T05:41:10;-0.30;99.90
13052;DHT22;6592;47.484;9.726;2024-01-30T05:43:38;-0.30;99.90
13052;DHT22;6592;47.484;9.726;2024-01-30T05:46:07;-0.40;99.90
13052;DHT22;6592;47.484;9.726;2024-01-30T05:48:36;-0.30;99.90
13052;DHT22;6592;47.484;9.726;2024-01-30T05:51:06;-0.30;99.90
13052;DHT22;6592;47.484;9.726;2024-01-30T05:53:35;-0.50;99.90
13052;DHT22;6592;47.484;9.726;2024-01-30T05:56:04;-0.50;99.90
13052;DHT22;6592;47.484;9.726;2024-01-30T05:58:32;-0.50;99.90
13052;DHT22;6592;47.484;9.726;2024-01-30T06:01:00;-0.70;99.90
13052;DHT22;6592;47.484;9.726;2024-01-30T06:03:28;-0.40;99.90
13052;DHT22;6592;47.484;9.726;2024-01-30T06:05:58;-0.40;99.90
13052;DHT22;6592;47.484;9.726;2024-01-30T06:08:29;-0.40;99.90
13052;DHT22;6592;47.484;9.726;2024-01-30T06:10:57;-0.40;99.90
13052;DHT22;6592;47.484;9.726;2024-01-30T06:13:25;-0.30;99.90
13052;DHT22;6592;47.484;9.726;2024-01-30T06:15:53;-0.10;99.90
13052;DHT22;6592;47.484;9.726;2024-01-30T06:18:22;-0.30;99.90
13052;DHT22;6592;47.484;9.726;2024-01-30T06:20:50;-0.30;99.90
13052;DHT22;6592;47.484;9.726;2024-01-30T06:23:20;-0.20;99.90
13052;DHT22;6592;47.484;9.726;2024-01-30T06:25:48;-0.30;99.90
13052;DHT22;6592;47.484;9.726;2024-01-30T06:28:16;-0.10;99.90
13052;DHT22;6592;47.484;9.726;2024-01-30T06:30:44;-0.20;99.90
13052;DHT22;6592;47.484;9.726;2024-01-30T06:33:12;-0.20;99.90
13052;DHT22;6592;47.484;9.726;2024-01-30T06:35:41;-0.10;99.90
13052;DHT22;6592;47.484;9.726;2024-01-30T06:38:11;-0.10;99.90
13052;DHT22;6592;47.484;9.726;2024-01-30T06:40:41;-0.20;99.90
13052;DHT22;6592;47.484;9.726;2024-01-30T06:43:09;-0.20;99.90
13052;DHT22;6592;47.484;9.726;2024-01-30T06:45:38;0.00;99.90
13052;DHT22;6592;47.484;9.726;2024-01-30T06:48:07;0.10;99.90
13052;DHT22;6592;47.484;9.726;2024-01-30T06:50:36;0.10;99.90
13052;DHT22;6592;47.484;9.726;2024-01-30T06:53:04;0.10;99.90
13052;DHT22;6592;47.484;9.726;2024-01-30T06:55:32;0.20;99.90
13052;DHT22;6592;47.484;9.726;2024-01-30T06:58:02;0.20;99.90
13052;DHT22;6592;47.484;9.726;2024-01-30T07:00:31;0.30;99.90
13052;DHT22;6592;47.484;9.726;2024-01-30T07:02:59;0.30;99.90
13052;DHT22;6592;47.484;9.726;2024-01-30T07:05:27;0.30;99.90
13052;DHT22;6592;47.484;9.726;2024-01-30T07:07:56;0.40;99.90
13052;DHT22;6592;47.484;9.726;2024-01-30T07:10:25;0.40;99.90
13052;DHT22;6592;47.484;9.726;2024-01-30T07:12:53;0.40;99.90
13052;DHT22;6592;47.484;9.726;2024-01-30T07:15:23;0.50;99.90
13052;DHT22;6592;47.484;9.726;2024-01-30T07:17:51;0.50;99.90
13052;DHT22;6592;47.484;9.726;2024-01-30T07:20:19;0.60;99.90
13052;DHT22;6592;47.484;9.726;2024-01-30T07:22:48;0.70;99.90
13052;DHT22;6592;47.484;9.726;2024-01-30T07:25:16;0.70;99.90
13052;DHT22;6592;47.484;9.726;2024-01-30T07:27:44;0.80;99.90
13052;DHT22;6592;47.484;9.726;2024-01-30T07:30:13;1.10;99.90
13052;DHT22;6592;47.484;9.726;2024-01-30T07:32:43;1.00;99.90
13052;DHT22;6592;47.484;9.726;2024-01-30T07:35:12;1.00;99.90
13052;DHT22;6592;47.484;9.726;2024-01-30T07:37:41;1.10;99.90
13052;DHT22;6592;47.484;9.726;2024-01-30T07:40:10;1.20;99.90
13052;DHT22;6592;47.484;9.726;2024-01-30T07:42:38;1.10;99.90
13052;DHT22;6592;47.484;9.726;2024-01-30T07:45:07;1.30;99.90
13052;DHT22;6592;47.484;9.726;2024-01-30T07:47:35;1.50;99.90
13052;DHT22;6592;47.484;9.726;2024-01-30T07:50:06;1.70;99.90
13052;DHT22;6592;47.484;9.726;2024-01-30T07:52:35;1.90;99.90
13052;DHT22;6592;47.484;9.726;2024-01-30T07:58:18;2.20;99.90
13052;DHT22;6592;47.484;9.726;2024-01-30T08:00:47;2.30;99.90
13052;DHT22;6592;47.484;9.726;2024-01-30T08:03:15;2.40;99.90
13052;DHT22;6592;47.484;9.726;2024-01-30T08:05:46;2.50;99.90
13052;DHT22;6592;47.484;9.726;2024-01-30T08:08:14;2.70;99.90
13052;DHT22;6592;47.484;9.726;2024-01-30T08:10:43;2.80;99.90
13052;DHT22;6592;47.484;9.726;2024-01-30T08:13:11;2.80;99.90
13052;DHT22;6592;47.484;9.726;2024-01-30T08:15:39;3.00;99.90
13052;DHT22;6592;47.484;9.726;2024-01-30T08:18:07;3.10;99.90
13052;DHT22;6592;47.484;9.726;2024-01-30T08:20:36;3.30;99.90
13052;DHT22;6592;47.484;9.726;2024-01-30T08:23:05;3.60;99.90
13052;DHT22;6592;47.484;9.726;2024-01-30T08:25:34;3.80;99.90
13052;DHT22;6592;47.484;9.726;2024-01-30T08:28:04;4.10;99.90
13052;DHT22;6592;47.484;9.726;2024-01-30T08:30:32;4.70;99.90
13052;DHT22;6592;47.484;9.726;2024-01-30T08:33:00;5.30;99.90
13052;DHT22;6592;47.484;9.726;2024-01-30T08:35:29;5.80;99.90
13052;DHT22;6592;47.484;9.726;2024-01-30T08:38:00;6.50;99.90
13052;DHT22;6592;47.484;9.726;2024-01-30T08:40:30;7.40;99.90
13052;DHT22;6592;47.484;9.726;2024-01-30T08:42:58;7.70;99.90
13052;DHT22;6592;47.484;9.726;2024-01-30T08:45:27;7.30;99.90
13052;DHT22;6592;47.484;9.726;2024-01-30T08:47:55;7.10;99.90
13052;DHT22;6592;47.484;9.726;2024-01-30T08:50:23;6.60;99.90
13052;DHT22;6592;47.484;9.726;2024-01-30T08:52:51;6.30;99.90
13052;DHT22;6592;47.484;9.726;2024-01-30T08:55:20;6.10;99.90
13052;DHT22;6592;47.484;9.726;2024-01-30T08:57:49;6.00;99.90
13052;DHT22;6592;47.484;9.726;2024-01-30T09:00:19;6.00;99.90
13052;DHT22;6592;47.484;9.726;2024-01-30T09:02:47;5.90;99.90
13052;DHT22;6592;47.484;9.726;2024-01-30T09:05:15;5.90;99.90
13052;DHT22;6592;47.484;9.726;2024-01-30T09:07:44;5.90;99.90
13052;DHT22;6592;47.484;9.726;2024-01-30T09:10:13;5.90;99.90
13052;DHT22;6592;47.484;9.726;2024-01-30T09:12:45;5.80;99.90
13052;DHT22;6592;47.484;9.726;2024-01-30T09:15:15;5.80;99.90
13052;DHT22;6592;47.484;9.726;2024-01-30T09:17:43;5.80;99.90
13052;DHT22;6592;47.484;9.726;2024-01-30T09:20:11;5.90;99.90
13052;DHT22;6592;47.484;9.726;2024-01-30T09:22:40;6.30;99.90
13052;DHT22;6592;47.484;9.726;2024-01-30T09:25:08;6.60;99.90
13052;DHT22;6592;47.484;9.726;2024-01-30T09:27:36;7.00;99.90
13052;DHT22;6592;47.484;9.726;2024-01-30T09:30:06;7.20;99.90
13052;DHT22;6592;47.484;9.726;2024-01-30T09:32:36;7.20;99.90
13052;DHT22;6592;47.484;9.726;2024-01-30T09:35:05;7.20;99.90
13052;DHT22;6592;47.484;9.726;2024-01-30T09:37:33;7.00;99.90
13052;DHT22;6592;47.484;9.726;2024-01-30T09:40:02;6.90;99.90
13052;DHT22;6592;47.484;9.726;2024-01-30T09:42:34;6.90;99.90
13052;DHT22;6592;47.484;9.726;2024-01-30T09:45:03;6.90;99.90
13052;DHT22;6592;47.484;9.726;2024-01-30T09:47:32;6.90;99.90
13052;DHT22;6592;47.484;9.726;2024-01-30T09:50:06;7.00;99.90
13052;DHT22;6592;47.484;9.726;2024-01-30T09:52:35;7.10;99.90
13052;DHT22;6592;47.484;9.726;2024-01-30T09:55:04;7.20;99.90
13052;DHT22;6592;47.484;9.726;2024-01-30T09:57:34;7.40;99.90
13052;DHT22;6592;47.484;9.726;2024-01-30T10:00:04;7.80;99.90
13052;DHT22;6592;47.484;9.726;2024-01-30T10:02:34;8.20;99.90
13052;DHT22;6592;47.484;9.726;2024-01-30T10:05:05;8.40;99.90
13052;DHT22;6592;47.484;9.726;2024-01-30T10:07:33;8.70;99.90
13052;DHT22;6592;47.484;9.726;2024-01-30T10:10:01;9.10;99.90
13052;DHT22;6592;47.484;9.726;2024-01-30T10:12:30;9.40;99.90
13052;DHT22;6592;47.484;9.726;2024-01-30T10:14:58;10.00;99.90
13052;DHT22;6592;47.484;9.726;2024-01-30T10:17:27;11.20;99.90
13052;DHT22;6592;47.484;9.726;2024-01-30T10:20:00;12.60;99.90
13052;DHT22;6592;47.484;9.726;2024-01-30T10:22:33;13.80;99.90
13052;DHT22;6592;47.484;9.726;2024-01-30T10:25:02;14.90;99.90
13052;DHT22;6592;47.484;9.726;2024-01-30T10:27:32;16.10;99.90
13052;DHT22;6592;47.484;9.726;2024-01-30T10:30:00;17.00;99.90
13052;DHT22;6592;47.484;9.726;2024-01-30T10:32:31;17.90;99.90
13052;DHT22;6592;47.484;9.726;2024-01-30T10:34:59;19.00;99.90
13052;DHT22;6592;47.484;9.726;2024-01-30T10:37:30;19.60;99.90
13052;DHT22;6592;47.484;9.726;2024-01-30T10:40:04;19.90;99.90
13052;DHT22;6592;47.484;9.726;2024-01-30T10:42:36;20.30;99.30
13052;DHT22;6592;47.484;9.726;2024-01-30T10:45:06;20.50;98.40
13052;DHT22;6592;47.484;9.726;2024-01-30T10:47:36;21.30;98.20
13052;DHT22;6592;47.484;9.726;2024-01-30T10:50:05;22.10;95.10
13052;DHT22;6592;47.484;9.726;2024-01-30T10:52:36;22.30;93.90
13052;DHT22;6592;47.484;9.726;2024-01-30T10:55:07;22.60;91.30
13052;DHT22;6592;47.484;9.726;2024-01-30T10:57:36;22.90;91.00
13052;DHT22;6592;47.484;9.726;2024-01-30T11:00:06;23.20;86.40
13052;DHT22;6592;47.484;9.726;2024-01-30T11:02:39;23.80;87.40
13052;DHT22;6592;47.484;9.726;2024-01-30T11:05:08;24.00;84.50
13052;DHT22;6592;47.484;9.726;2024-01-30T11:07:39;24.30;81.80
13052;DHT22;6592;47.484;9.726;2024-01-30T11:10:09;24.60;77.30
13052;DHT22;6592;47.484;9.726;2024-01-30T11:12:40;24.10;78.40
13052;DHT22;6592;47.484;9.726;2024-01-30T11:15:13;23.30;78.30
13052;DHT22;6592;47.484;9.726;2024-01-30T11:17:45;22.40;80.00
13052;DHT22;6592;47.484;9.726;2024-01-30T11:20:20;21.80;80.70
13052;DHT22;6592;47.484;9.726;2024-01-30T11:22:51;21.40;82.70
13052;DHT22;6592;47.484;9.726;2024-01-30T11:25:21;21.40;83.20
13052;DHT22;6592;47.484;9.726;2024-01-30T11:27:52;21.80;80.00
13052;DHT22;6592;47.484;9.726;2024-01-30T11:30:24;21.80;81.60
13052;DHT22;6592;47.484;9.726;2024-01-30T11:33:03;22.00;80.70
13052;DHT22;6592;47.484;9.726;2024-01-30T11:35:34;21.70;79.40
13052;DHT22;6592;47.484;9.726;2024-01-30T11:38:03;21.60;80.80
13052;DHT22;6592;47.484;9.726;2024-01-30T11:40:35;21.70;81.70
13052;DHT22;6592;47.484;9.726;2024-01-30T11:43:04;21.60;80.40
13052;DHT22;6592;47.484;9.726;2024-01-30T11:45:33;21.30;80.50
13052;DHT22;6592;47.484;9.726;2024-01-30T11:48:02;20.90;82.30
13052;DHT22;6592;47.484;9.726;2024-01-30T11:50:33;19.70;83.40
13052;DHT22;6592;47.484;9.726;2024-01-30T11:53:02;19.90;84.80
13052;DHT22;6592;47.484;9.726;2024-01-30T11:55:30;19.80;86.10
13052;DHT22;6592;47.484;9.726;2024-01-30T11:58:02;20.00;86.50
13052;DHT22;6592;47.484;9.726;2024-01-30T12:00:32;20.10;84.70
13052;DHT22;6592;47.484;9.726;2024-01-30T12:03:02;20.40;85.30
13052;DHT22;6592;47.484;9.726;2024-01-30T12:05:33;20.30;84.40
13052;DHT22;6592;47.484;9.726;2024-01-30T12:08:03;20.20;85.80
13052;DHT22;6592;47.484;9.726;2024-01-30T12:10:31;19.90;86.10
13052;DHT22;6592;47.484;9.726;2024-01-30T12:13:00;19.70;86.20
13052;DHT22;6592;47.484;9.726;2024-01-30T12:15:30;19.50;87.70
13052;DHT22;6592;47.484;9.726;2024-01-30T12:18:05;19.30;87.70
13052;DHT22;6592;47.484;9.726;2024-01-30T12:20:35;19.00;88.70
13052;DHT22;6592;47.484;9.726;2024-01-30T12:23:03;18.40;89.90
13052;DHT22;6592;47.484;9.726;2024-01-30T12:25:32;18.70;89.60
13052;DHT22;6592;47.484;9.726;2024-01-30T12:28:00;18.90;90.10
13052;DHT22;6592;47.484;9.726;2024-01-30T12:30:30;18.90;90.00
13052;DHT22;6592;47.484;9.726;2024-01-30T12:32:58;18.60;90.20
13052;DHT22;6592;47.484;9.726;2024-01-30T12:35:28;18.60;90.70
13052;DHT22;6592;47.484;9.726;2024-01-30T12:37:59;18.60;90.40
13052;DHT22;6592;47.484;9.726;2024-01-30T12:40:28;18.70;90.80
13052;DHT22;6592;47.484;9.726;2024-01-30T12:42:56;18.80;90.60
13052;DHT22;6592;47.484;9.726;2024-01-30T12:45:25;18.60;90.30
13052;DHT22;6592;47.484;9.726;2024-01-30T12:47:55;18.60;90.90
13052;DHT22;6592;47.484;9.726;2024-01-30T12:50:23;18.80;91.10
13052;DHT22;6592;47.484;9.726;2024-01-30T12:52:51;18.60;90.90
13052;DHT22;6592;47.484;9.726;2024-01-30T12:55:20;19.00;91.20
13052;DHT22;6592;47.484;9.726;2024-01-30T12:57:48;19.30;90.40
13052;DHT22;6592;47.484;9.726;2024-01-30T13:00:17;19.50;91.10
13052;DHT22;6592;47.484;9.726;2024-01-30T13:02:45;19.80;90.50
13052;DHT22;6592;47.484;9.726;2024-01-30T13:05:15;20.10;89.10
13052;DHT22;6592;47.484;9.726;2024-01-30T13:07:44;20.10;89.20
13052;DHT22;6592;47.484;9.726;2024-01-30T13:10:12;20.00;88.70
13052;DHT22;6592;47.484;9.726;2024-01-30T13:12:40;19.80;90.00
13052;DHT22;6592;47.484;9.726;2024-01-30T13:15:09;19.80;88.60
13052;DHT22;6592;47.484;9.726;2024-01-30T13:17:38;19.80;90.50
13052;DHT22;6592;47.484;9.726;2024-01-30T13:20:07;20.00;89.30
13052;DHT22;6592;47.484;9.726;2024-01-30T13:22:39;19.80;90.40
13052;DHT22;6592;47.484;9.726;2024-01-30T13:25:08;19.80;90.20
13052;DHT22;6592;47.484;9.726;2024-01-30T13:27:36;19.60;90.40
13052;DHT22;6592;47.484;9.726;2024-01-30T13:30:07;19.70;90.10
13052;DHT22;6592;47.484;9.726;2024-01-30T13:32:36;19.70;89.10
13052;DHT22;6592;47.484;9.726;2024-01-30T13:35:05;19.70;89.70
13052;DHT22;6592;47.484;9.726;2024-01-30T13:37:34;20.10;90.30
13052;DHT22;6592;47.484;9.726;2024-01-30T13:40:05;20.50;89.30
13052;DHT22;6592;47.484;9.726;2024-01-30T13:42:40;20.60;86.80
13052;DHT22;6592;47.484;9.726;2024-01-30T13:45:08;20.40;88.90
13052;DHT22;6592;47.484;9.726;2024-01-30T13:47:38;20.20;88.30
13052;DHT22;6592;47.484;9.726;2024-01-30T13:50:06;19.70;88.60
13052;DHT22;6592;47.484;9.726;2024-01-30T13:52:37;19.20;88.80
13052;DHT22;6592;47.484;9.726;2024-01-30T13:55:12;18.50;89.90
13052;DHT22;6592;47.484;9.726;2024-01-30T13:57:41;17.70;90.50
13052;DHT22;6592;47.484;9.726;2024-01-30T14:00:10;17.10;91.30
13052;DHT22;6592;47.484;9.726;2024-01-30T14:02:43;16.70;91.90
13052;DHT22;6592;47.484;9.726;2024-01-30T14:05:11;16.30;93.00
13052;DHT22;6592;47.484;9.726;2024-01-30T14:07:40;15.90;93.80
13052;DHT22;6592;47.484;9.726;2024-01-30T14:10:11;15.70;94.40
13052;DHT22;6592;47.484;9.726;2024-01-30T14:12:41;15.50;95.10
13052;DHT22;6592;47.484;9.726;2024-01-30T14:15:10;15.50;95.40
13052;DHT22;6592;47.484;9.726;2024-01-30T14:17:53;15.70;96.40
13052;DHT22;6592;47.484;9.726;2024-01-30T14:20:22;15.80;96.90
13052;DHT22;6592;47.484;9.726;2024-01-30T14:22:51;16.40;96.30
13052;DHT22;6592;47.484;9.726;2024-01-30T14:25:21;17.10;95.70
13052;DHT22;6592;47.484;9.726;2024-01-30T14:27:50;17.80;93.40
13052;DHT22;6592;47.484;9.726;2024-01-30T14:30:18;18.20;93.20
13052;DHT22;6592;47.484;9.726;2024-01-30T14:32:46;19.00;93.00
13052;DHT22;6592;47.484;9.726;2024-01-30T14:35:16;20.00;91.30
13052;DHT22;6592;47.484;9.726;2024-01-30T14:37:44;20.40;91.00
13052;DHT22;6592;47.484;9.726;2024-01-30T14:40:12;19.80;90.80
13052;DHT22;6592;47.484;9.726;2024-01-30T14:42:42;19.90;91.00
13052;DHT22;6592;47.484;9.726;2024-01-30T14:45:10;20.00;90.60
13052;DHT22;6592;47.484;9.726;2024-01-30T14:47:39;19.50;90.60
13052;DHT22;6592;47.484;9.726;2024-01-30T14:50:08;19.50;90.80
13052;DHT22;6592;47.484;9.726;2024-01-30T14:52:37;19.40;90.50
13052;DHT22;6592;47.484;9.726;2024-01-30T14:55:07;19.10;90.90
13052;DHT22;6592;47.484;9.726;2024-01-30T14:57:36;18.50;91.10
13052;DHT22;6592;47.484;9.726;2024-01-30T15:00:07;18.00;91.40
13052;DHT22;6592;47.484;9.726;2024-01-30T15:02:36;17.20;92.10
13052;DHT22;6592;47.484;9.726;2024-01-30T15:05:05;16.60;92.70
13052;DHT22;6592;47.484;9.726;2024-01-30T15:07:33;16.10;93.30
13052;DHT22;6592;47.484;9.726;2024-01-30T15:10:07;15.60;93.90
13052;DHT22;6592;47.484;9.726;2024-01-30T15:12:36;15.10;94.70
13052;DHT22;6592;47.484;9.726;2024-01-30T15:15:08;14.60;95.30
13052;DHT22;6592;47.484;9.726;2024-01-30T15:17:38;14.20;96.30
13052;DHT22;6592;47.484;9.726;2024-01-30T15:20:07;13.70;96.60
13052;DHT22;6592;47.484;9.726;2024-01-30T15:22:36;13.30;97.20
13052;DHT22;6592;47.484;9.726;2024-01-30T15:25:05;12.80;98.10
13052;DHT22;6592;47.484;9.726;2024-01-30T15:27:34;12.40;98.90
13052;DHT22;6592;47.484;9.726;2024-01-30T15:30:03;11.90;99.90
13052;DHT22;6592;47.484;9.726;2024-01-30T15:32:32;11.50;99.90
13052;DHT22;6592;47.484;9.726;2024-01-30T15:35:01;11.10;99.90
13052;DHT22;6592;47.484;9.726;2024-01-30T15:37:32;10.60;99.90
13052;DHT22;6592;47.484;9.726;2024-01-30T15:40:00;10.30;99.90
13052;DHT22;6592;47.484;9.726;2024-01-30T15:42:29;10.00;99.90
13052;DHT22;6592;47.484;9.726;2024-01-30T15:44:57;9.60;99.90
13052;DHT22;6592;47.484;9.726;2024-01-30T15:47:26;9.40;99.90
13052;DHT22;6592;47.484;9.726;2024-01-30T15:49:56;9.20;99.90
13052;DHT22;6592;47.484;9.726;2024-01-30T15:52:24;8.90;99.90
13052;DHT22;6592;47.484;9.726;2024-01-30T15:54:52;8.70;99.90
13052;DHT22;6592;47.484;9.726;2024-01-30T15:57:21;8.50;99.90
13052;DHT22;6592;47.484;9.726;2024-01-30T15:59:52;8.20;99.90
13052;DHT22;6592;47.484;9.726;2024-01-30T16:02:20;8.00;99.90
13052;DHT22;6592;47.484;9.726;2024-01-30T16:04:48;7.70;99.90
13052;DHT22;6592;47.484;9.726;2024-01-30T16:07:19;7.60;99.90
13052;DHT22;6592;47.484;9.726;2024-01-30T16:09:47;7.50;99.90